Time;durP1;ratioP1;P1;durP2;ratioP2;P2;SDS_P1;SDS_P2;PMS_P1;PMS_P2;Temp;Humidity;BMP_temperature;BMP_pressure;BME280_temperature;BME280_humidity;BME280_pressure;Samples;Min_cycle;Max_cycle;Signal;HPM_P1;HPM_P2
2023/05/28 00:00:56;;;;;;;7.10;3.23;;;13.50;99.80;;;;;;5071766;28;20212;-58
2023/05/28 00:03:23;;;;;;;6.63;3.50;;;13.40;99.60;;;;;;5071425;28;20201;-57
2023/05/28 00:05:50;;;;;;;7.63;3.30;;;13.50;99.40;;;;;;5071214;28;20767;-57
2023/05/28 00:08:18;;;;;;;6.00;3.50;;;13.50;99.40;;;;;;5071410;28;20689;-58
2023/05/28 00:10:45;;;;;;;4.83;3.47;;;13.50;99.30;;;;;;5071348;28;20229;-58
2023/05/28 00:13:12;;;;;;;7.43;3.57;;;13.50;99.40;;;;;;5071214;28;20236;-59
2023/05/28 00:15:39;;;;;;;6.77;3.07;;;13.50;99.40;;;;;;5071789;28;20202;-59
2023/05/28 00:18:05;;;;;;;5.60;3.03;;;13.50;99.30;;;;;;5071071;28;20609;-58
2023/05/28 00:20:32;;;;;;;7.07;3.60;;;13.50;99.30;;;;;;5071376;28;20236;-58
2023/05/28 00:22:59;;;;;;;6.83;3.40;;;13.50;99.30;;;;;;5072299;28;20205;-58
2023/05/28 00:25:27;;;;;;;8.47;3.30;;;13.50;99.30;;;;;;5074849;28;20590;-57
2023/05/28 00:27:53;;;;;;;6.70;3.57;;;13.50;99.30;;;;;;5074917;28;20204;-58
2023/05/28 00:30:23;;;;;;;6.80;3.30;;;13.40;99.20;;;;;;5075200;28;20232;-58
2023/05/28 00:32:50;;;;;;;9.77;3.77;;;13.40;99.20;;;;;;5074772;28;20463;-58
2023/05/28 00:35:17;;;;;;;7.37;3.40;;;13.40;99.30;;;;;;5074917;28;20212;-58
2023/05/28 00:37:43;;;;;;;5.70;3.23;;;13.40;99.30;;;;;;5074780;28;20208;-58
2023/05/28 00:40:11;;;;;;;9.03;3.70;;;13.30;99.50;;;;;;5074440;28;20239;-58
2023/05/28 00:42:40;;;;;;;5.90;3.43;;;13.30;99.60;;;;;;5074577;28;20205;-58
2023/05/28 00:45:08;;;;;;;10.87;6.83;;;13.30;99.80;;;;;;5074811;28;20570;-57
2023/05/28 00:47:34;;;;;;;5.97;3.60;;;13.20;99.90;;;;;;5073986;28;20221;-57
2023/05/28 00:50:01;;;;;;;6.93;3.53;;;13.20;99.90;;;;;;5074375;28;20229;-58
2023/05/28 00:52:28;;;;;;;5.43;3.53;;;13.20;99.90;;;;;;5074109;28;20311;-58
2023/05/28 00:54:56;;;;;;;6.37;3.97;;;13.20;99.90;;;;;;5074259;28;20268;-57
2023/05/28 00:57:23;;;;;;;8.00;3.63;;;13.20;99.90;;;;;;5073778;28;20539;-57
2023/05/28 00:59:51;;;;;;;7.23;4.00;;;13.20;99.90;;;;;;5073915;28;20268;-58
2023/05/28 01:02:18;;;;;;;7.97;3.13;;;13.20;99.90;;;;;;5073997;28;20216;-58
2023/05/28 01:04:45;;;;;;;8.70;3.80;;;13.10;99.90;;;;;;5073914;28;20227;-58
2023/05/28 01:07:12;;;;;;;6.80;3.73;;;13.20;99.90;;;;;;5073505;28;20217;-58
2023/05/28 01:09:39;;;;;;;6.87;4.10;;;13.20;99.90;;;;;;5087067;22;20229;-60
2023/05/28 01:12:07;;;;;;;8.17;3.80;;;13.20;99.90;;;;;;5068433;28;20197;-59
2023/05/28 01:14:37;;;;;;;7.27;3.53;;;13.10;99.90;;;;;;5076663;28;20220;-59
2023/05/28 01:17:06;;;;;;;7.10;3.77;;;13.10;99.90;;;;;;5076644;28;20300;-60
2023/05/28 01:19:33;;;;;;;6.07;3.80;;;13.10;99.90;;;;;;5076940;28;20706;-59
2023/05/28 01:22:04;;;;;;;9.57;4.00;;;13.10;99.90;;;;;;5076586;28;20212;-60
2023/05/28 01:24:33;;;;;;;7.00;3.97;;;13.00;99.90;;;;;;5076976;28;20670;-60
2023/05/28 01:27:01;;;;;;;5.87;3.90;;;13.00;99.90;;;;;;5076345;28;20702;-60
2023/05/28 01:29:27;;;;;;;10.97;4.37;;;13.00;99.90;;;;;;5077352;28;20228;-60
2023/05/28 01:31:54;;;;;;;6.50;3.77;;;13.00;99.90;;;;;;5077044;28;20211;-60
2023/05/28 01:34:22;;;;;;;6.20;3.60;;;13.00;99.90;;;;;;5076712;28;20208;-59
2023/05/28 01:36:56;;;;;;;6.93;4.10;;;12.90;99.90;;;;;;5076287;28;20572;-59
2023/05/28 01:39:26;;;;;;;8.20;3.97;;;12.90;99.90;;;;;;5075236;28;20271;-59
2023/05/28 01:41:54;;;;;;;7.80;4.30;;;12.80;99.90;;;;;;5075529;28;20784;-59
2023/05/28 01:44:22;;;;;;;9.20;4.27;;;12.80;99.90;;;;;;5075098;28;20212;-59
2023/05/28 01:46:52;;;;;;;8.07;4.40;;;12.80;99.90;;;;;;5074666;28;20228;-60
2023/05/28 01:49:20;;;;;;;6.70;4.00;;;12.70;99.90;;;;;;5075490;28;20779;-59
2023/05/28 01:51:47;;;;;;;7.10;4.10;;;12.70;99.90;;;;;;5075318;28;20686;-59
2023/05/28 01:54:14;;;;;;;8.93;4.43;;;12.70;99.90;;;;;;5075447;28;20216;-59
2023/05/28 01:56:41;;;;;;;6.90;3.60;;;12.60;99.90;;;;;;5075765;28;20235;-59
2023/05/28 01:59:09;;;;;;;7.37;3.50;;;12.50;99.90;;;;;;5075486;28;20221;-59
2023/05/28 02:01:36;;;;;;;6.83;3.63;;;12.40;99.90;;;;;;5074861;28;20216;-59
2023/05/28 02:04:03;;;;;;;7.43;3.80;;;12.40;99.90;;;;;;5075071;28;20668;-58
2023/05/28 02:06:32;;;;;;;4.83;3.70;;;12.30;99.90;;;;;;5074850;28;20243;-59
2023/05/28 02:08:59;;;;;;;7.37;3.93;;;12.20;99.90;;;;;;5074906;28;20205;-60
2023/05/28 02:11:26;;;;;;;7.50;3.93;;;12.20;99.90;;;;;;5075288;28;20296;-60
2023/05/28 02:13:54;;;;;;;8.33;4.00;;;12.10;99.90;;;;;;5074733;28;20207;-60
2023/05/28 02:16:22;;;;;;;5.83;3.60;;;12.00;99.90;;;;;;5074581;28;20390;-60
2023/05/28 02:18:52;;;;;;;10.13;3.50;;;12.00;99.90;;;;;;5074696;28;20227;-60
2023/05/28 02:21:19;;;;;;;5.70;4.20;;;11.90;99.90;;;;;;5074256;28;20213;-60
2023/05/28 02:23:48;;;;;;;6.13;3.60;;;11.80;99.90;;;;;;5074724;28;20201;-60
2023/05/28 02:26:15;;;;;;;7.47;3.63;;;11.80;99.90;;;;;;5073560;28;20224;-60
2023/05/28 02:28:43;;;;;;;5.83;3.50;;;11.70;99.90;;;;;;5074208;28;20208;-60
2023/05/28 02:31:10;;;;;;;5.27;3.43;;;11.70;99.90;;;;;;5074326;28;20205;-60
2023/05/28 02:33:38;;;;;;;5.80;3.10;;;11.60;99.90;;;;;;5074555;28;20205;-60
2023/05/28 02:36:07;;;;;;;6.07;3.90;;;11.50;99.90;;;;;;5073564;28;20229;-59
2023/05/28 02:38:33;;;;;;;7.97;3.80;;;11.50;99.90;;;;;;5073658;28;20219;-59
2023/05/28 02:41:00;;;;;;;4.60;3.47;;;11.40;99.90;;;;;;5073639;28;20232;-59
2023/05/28 02:43:27;;;;;;;8.13;3.23;;;11.30;99.90;;;;;;5073433;28;20205;-60
2023/05/28 02:45:54;;;;;;;5.47;3.63;;;11.20;99.90;;;;;;5072784;28;20215;-59
2023/05/28 02:48:21;;;;;;;4.90;3.20;;;11.10;99.90;;;;;;5073312;28;20201;-59
2023/05/28 02:50:49;;;;;;;7.07;3.37;;;11.10;99.90;;;;;;5073700;28;20228;-59
2023/05/28 02:53:16;;;;;;;5.60;3.77;;;11.10;99.90;;;;;;5073605;28;20208;-59
2023/05/28 02:55:43;;;;;;;4.47;3.27;;;11.00;99.90;;;;;;5073479;28;20204;-58
2023/05/28 02:58:10;;;;;;;5.47;3.60;;;11.00;99.90;;;;;;5073539;28;20219;-59
2023/05/28 03:00:37;;;;;;;5.37;3.40;;;11.00;99.90;;;;;;5073500;28;20231;-58
2023/05/28 03:03:03;;;;;;;5.03;3.73;;;11.00;99.90;;;;;;5073035;28;20235;-58
2023/05/28 03:05:32;;;;;;;6.90;3.50;;;10.90;99.90;;;;;;5073095;28;20209;-59
2023/05/28 03:08:00;;;;;;;6.17;3.50;;;10.90;99.90;;;;;;5072320;28;20311;-58
2023/05/28 03:10:27;;;;;;;6.90;3.63;;;10.90;99.90;;;;;;5072655;28;20713;-58
2023/05/28 03:12:53;;;;;;;6.43;3.50;;;10.90;99.90;;;;;;5073300;28;20218;-59
2023/05/28 03:15:20;;;;;;;11.03;3.80;;;10.90;99.90;;;;;;5072968;28;20209;-58
2023/05/28 03:17:47;;;;;;;5.30;3.50;;;10.90;99.90;;;;;;5072823;28;20204;-59
2023/05/28 03:20:14;;;;;;;4.83;3.37;;;10.90;99.90;;;;;;5073335;28;20283;-58
2023/05/28 03:22:41;;;;;;;6.80;4.00;;;10.80;99.90;;;;;;5073149;28;20213;-59
2023/05/28 03:25:10;;;;;;;8.67;3.80;;;10.80;99.90;;;;;;5073110;28;20251;-59
2023/05/28 03:27:37;;;;;;;6.10;3.47;;;10.70;99.90;;;;;;5072460;28;20251;-59
2023/05/28 03:30:06;;;;;;;4.90;3.80;;;10.70;99.90;;;;;;5073077;28;20233;-59
2023/05/28 03:32:33;;;;;;;5.83;3.13;;;10.70;99.90;;;;;;5072714;28;20764;-59
2023/05/28 03:34:59;;;;;;;5.90;3.90;;;10.60;99.90;;;;;;5073072;28;20690;-60
2023/05/28 03:37:26;;;;;;;5.73;3.80;;;10.60;99.90;;;;;;5072795;28;20681;-58
2023/05/28 03:39:53;;;;;;;7.73;3.90;;;10.60;99.90;;;;;;5073182;28;20228;-58
2023/05/28 03:42:21;;;;;;;6.73;3.57;;;10.60;99.90;;;;;;5072931;28;20215;-60
2023/05/28 03:44:48;;;;;;;7.00;3.77;;;10.70;99.90;;;;;;5072588;28;20208;-59
2023/05/28 03:47:15;;;;;;;5.67;3.57;;;10.70;99.90;;;;;;5072781;28;20240;-59
2023/05/28 03:49:42;;;;;;;6.97;3.70;;;10.70;99.90;;;;;;5072853;28;20229;-58
2023/05/28 03:52:09;;;;;;;7.87;3.70;;;10.80;99.90;;;;;;5073002;28;20209;-58
2023/05/28 03:54:36;;;;;;;5.87;3.70;;;10.80;99.90;;;;;;5072874;28;20670;-59
2023/05/28 03:57:02;;;;;;;7.00;3.80;;;10.90;99.90;;;;;;5074076;28;20204;-59
2023/05/28 03:59:31;;;;;;;6.83;3.80;;;11.00;99.90;;;;;;5076750;28;20229;-59
2023/05/28 04:01:57;;;;;;;8.80;3.73;;;11.00;99.90;;;;;;5077051;28;20205;-59
2023/05/28 04:04:24;;;;;;;8.57;3.77;;;11.10;99.90;;;;;;5076668;28;20209;-60
2023/05/28 04:06:51;;;;;;;7.33;3.70;;;11.20;99.90;;;;;;5076278;28;20274;-60
2023/05/28 04:09:17;;;;;;;6.70;3.63;;;11.20;99.90;;;;;;5076623;28;20233;-59
2023/05/28 04:11:44;;;;;;;7.37;4.20;;;11.30;99.90;;;;;;5076471;28;20217;-59
2023/05/28 04:14:11;;;;;;;6.77;3.53;;;11.30;99.90;;;;;;5075996;28;20264;-59
2023/05/28 04:16:39;;;;;;;6.00;3.47;;;11.30;99.90;;;;;;5075373;28;20212;-60
2023/05/28 04:19:06;;;;;;;9.70;3.53;;;11.40;99.90;;;;;;5075484;28;20294;-59
2023/05/28 04:21:33;;;;;;;6.37;4.10;;;11.50;99.90;;;;;;5075720;28;20216;-59
2023/05/28 04:24:00;;;;;;;7.60;4.07;;;11.70;99.90;;;;;;5075716;28;20205;-59
2023/05/28 04:26:27;;;;;;;7.10;3.67;;;11.80;99.90;;;;;;5075101;28;20248;-59
2023/05/28 04:28:54;;;;;;;6.23;3.80;;;11.90;99.90;;;;;;5075459;28;20212;-59
2023/05/28 04:31:21;;;;;;;9.73;3.63;;;12.10;99.90;;;;;;5075431;28;20627;-58
2023/05/28 04:33:49;;;;;;;5.37;3.47;;;12.20;99.90;;;;;;5075815;28;20262;-59
2023/05/28 04:36:16;;;;;;;7.73;4.57;;;12.30;99.90;;;;;;5075847;28;20205;-59
2023/05/28 04:38:43;;;;;;;7.13;3.73;;;12.40;99.90;;;;;;5076136;28;20201;-61
2023/05/28 04:41:13;;;;;;;6.93;3.70;;;12.60;99.90;;;;;;5075560;28;20575;-60
2023/05/28 04:43:41;;;;;;;4.60;3.27;;;12.70;99.90;;;;;;5075469;28;20251;-61
2023/05/28 04:46:08;;;;;;;6.83;3.77;;;12.90;99.90;;;;;;5075386;28;20207;-59
2023/05/28 04:48:36;;;;;;;7.13;3.63;;;12.90;99.90;;;;;;5075671;28;20255;-59
2023/05/28 04:51:05;;;;;;;5.50;3.37;;;13.10;99.90;;;;;;5075396;28;20239;-60
2023/05/28 04:53:33;;;;;;;10.67;3.60;;;13.10;99.90;;;;;;5075537;28;20233;-61
2023/05/28 04:56:00;;;;;;;6.50;3.70;;;13.30;99.90;;;;;;5076084;28;20201;-62
2023/05/28 04:58:27;;;;;;;6.83;3.27;;;13.40;99.90;;;;;;5075487;28;20665;-59
2023/05/28 05:00:55;;;;;;;6.37;3.33;;;13.50;99.90;;;;;;5074831;28;20221;-59
2023/05/28 05:03:22;;;;;;;4.93;3.20;;;13.70;99.90;;;;;;5075438;28;20573;-59
2023/05/28 05:05:49;;;;;;;7.43;3.50;;;13.60;99.90;;;;;;5074416;28;20204;-60
2023/05/28 05:08:17;;;;;;;5.63;3.60;;;13.80;99.90;;;;;;5074241;28;20232;-59
2023/05/28 05:10:44;;;;;;;7.00;3.80;;;14.00;99.90;;;;;;5074802;28;20260;-60
2023/05/28 05:13:10;;;;;;;6.13;3.33;;;14.20;99.90;;;;;;5074675;28;20247;-60
2023/05/28 05:15:37;;;;;;;5.23;2.93;;;15.00;99.90;;;;;;5074843;28;20666;-59
2023/05/28 05:18:04;;;;;;;4.95;3.28;;;16.70;99.90;;;;;;5074990;28;20197;-60
2023/05/28 05:20:31;;;;;;;6.93;3.17;;;18.50;99.10;;;;;;5075303;28;20608;-60
2023/05/28 05:22:58;;;;;;;7.82;3.70;;;20.10;94.80;;;;;;5075376;28;20217;-60
2023/05/28 05:25:26;;;;;;;6.85;3.38;;;21.20;91.40;;;;;;5074744;28;20561;-61
2023/05/28 05:27:52;;;;;;;6.60;3.70;;;21.10;90.20;;;;;;5074012;28;20706;-61
2023/05/28 05:30:19;;;;;;;5.90;3.42;;;20.60;89.50;;;;;;5074760;28;20235;-60
2023/05/28 05:32:46;;;;;;;7.20;3.70;;;20.60;89.80;;;;;;5074468;28;20266;-60
2023/05/28 05:35:13;;;;;;;7.78;3.42;;;21.30;87.10;;;;;;5074946;28;20209;-60
2023/05/28 05:37:39;;;;;;;7.97;4.20;;;22.20;85.40;;;;;;5074995;28;20257;-60
2023/05/28 05:40:08;;;;;;;6.95;3.15;;;22.80;83.00;;;;;;5074850;28;20315;-60
2023/05/28 05:42:37;;;;;;;6.65;3.20;;;24.00;79.30;;;;;;5075704;28;20282;-60
2023/05/28 05:45:05;;;;;;;5.82;3.22;;;25.30;75.30;;;;;;5075512;28;20680;-60
2023/05/28 05:47:32;;;;;;;7.53;3.58;;;26.60;69.80;;;;;;5075116;28;20221;-60
2023/05/28 05:49:59;;;;;;;6.13;3.42;;;27.70;65.90;;;;;;5075469;28;20670;-60
2023/05/28 05:52:26;;;;;;;9.93;3.67;;;28.50;63.00;;;;;;5074846;28;20205;-60
2023/05/28 05:54:53;;;;;;;5.72;3.20;;;29.40;60.00;;;;;;5074878;28;20208;-61
2023/05/28 05:57:19;;;;;;;6.82;3.90;;;30.10;58.70;;;;;;5074844;28;20228;-60
2023/05/28 05:59:48;;;;;;;6.15;3.10;;;30.70;56.60;;;;;;5074378;28;20782;-60
2023/05/28 06:02:14;;;;;;;4.47;3.03;;;31.20;55.90;;;;;;5074849;28;20208;-61
2023/05/28 06:04:41;;;;;;;6.07;3.30;;;31.70;54.20;;;;;;5074197;28;20209;-60
2023/05/28 06:07:08;;;;;;;7.05;3.75;;;32.20;53.50;;;;;;5073799;28;20250;-60
2023/05/28 06:09:35;;;;;;;6.75;3.13;;;32.70;52.10;;;;;;5073628;28;20244;-60
2023/05/28 06:12:02;;;;;;;7.22;3.40;;;32.80;51.10;;;;;;5073989;28;20246;-60
2023/05/28 06:14:29;;;;;;;6.70;3.47;;;33.20;50.10;;;;;;5074010;28;20227;-61
2023/05/28 06:16:57;;;;;;;7.50;3.40;;;33.60;48.30;;;;;;5073257;28;20671;-61
2023/05/28 06:19:24;;;;;;;5.30;3.25;;;33.70;46.80;;;;;;5073608;28;20236;-61
2023/05/28 06:21:51;;;;;;;6.72;3.70;;;33.90;46.50;;;;;;5073872;28;20686;-61
2023/05/28 06:24:18;;;;;;;7.82;3.55;;;33.60;46.00;;;;;;5073220;28;20662;-61
2023/05/28 06:26:45;;;;;;;6.07;3.60;;;33.40;45.50;;;;;;5073832;28;20205;-61
2023/05/28 06:29:11;;;;;;;9.50;5.22;;;34.10;45.20;;;;;;5074065;28;20614;-61
2023/05/28 06:31:40;;;;;;;7.97;4.00;;;34.70;44.50;;;;;;5073442;28;20204;-61
2023/05/28 06:34:08;;;;;;;5.82;3.50;;;35.10;43.80;;;;;;5073540;28;20240;-61
2023/05/28 06:36:35;;;;;;;5.47;3.20;;;35.40;42.70;;;;;;5073306;28;20577;-61
2023/05/28 06:39:02;;;;;;;8.00;3.47;;;34.70;42.90;;;;;;5074164;28;20247;-61
2023/05/28 06:41:29;;;;;;;6.13;3.13;;;33.20;44.20;;;;;;5073795;28;20220;-63
2023/05/28 06:43:56;;;;;;;6.07;3.33;;;32.70;45.20;;;;;;5076053;28;20239;-62
2023/05/28 06:46:22;;;;;;;6.47;3.55;;;33.40;44.60;;;;;;5076441;28;20209;-66
2023/05/28 06:48:49;;;;;;;5.82;3.53;;;34.20;43.80;;;;;;5076186;28;20251;-67
2023/05/28 06:51:17;;;;;;;6.90;3.40;;;35.10;43.20;;;;;;5075509;28;20212;-66
2023/05/28 06:53:44;;;;;;;5.35;3.35;;;35.60;42.60;;;;;;5075757;28;20215;-67
2023/05/28 06:56:11;;;;;;;5.60;3.65;;;35.00;43.40;;;;;;5074861;28;20212;-67
2023/05/28 06:58:38;;;;;;;5.80;3.22;;;34.90;42.80;;;;;;5074735;28;20293;-66
2023/05/28 07:01:05;;;;;;;5.88;3.60;;;35.30;42.80;;;;;;5074186;28;20221;-65
2023/05/28 07:03:32;;;;;;;7.40;3.33;;;35.80;42.50;;;;;;5074508;28;20701;-64
2023/05/28 07:05:59;;;;;;;6.03;3.35;;;35.40;43.40;;;;;;5074849;28;20205;-65
2023/05/28 07:08:27;;;;;;;5.07;3.40;;;35.40;43.40;;;;;;5074520;28;20225;-66
2023/05/28 07:10:54;;;;;;;5.22;3.45;;;35.90;42.80;;;;;;5075085;28;20233;-66
2023/05/28 07:13:21;;;;;;;6.68;3.50;;;36.10;42.30;;;;;;5074269;28;20643;-66
2023/05/28 07:15:48;;;;;;;7.88;3.55;;;35.90;42.80;;;;;;5073968;28;20209;-66
2023/05/28 07:18:14;;;;;;;7.75;4.28;;;36.60;42.10;;;;;;5073793;28;20205;-66
2023/05/28 07:20:41;;;;;;;7.78;3.80;;;37.20;41.50;;;;;;5073638;28;20236;-66
2023/05/28 07:23:11;;;;;;;6.05;3.20;;;37.70;40.80;;;;;;5074203;28;20217;-66
2023/05/28 07:25:39;;;;;;;6.35;3.53;;;38.20;40.10;;;;;;5074086;28;20205;-67
2023/05/28 07:28:05;;;;;;;7.40;3.65;;;38.20;39.80;;;;;;5074049;28;20228;-65
2023/05/28 07:30:32;;;;;;;6.70;3.90;;;38.30;39.80;;;;;;5073768;28;20220;-67
2023/05/28 07:32:59;;;;;;;6.35;3.47;;;38.00;40.10;;;;;;5077404;28;20208;-66
2023/05/28 07:35:26;;;;;;;9.05;3.40;;;37.60;40.40;;;;;;5078235;28;20254;-66
2023/05/28 07:37:53;;;;;;;7.55;3.47;;;37.70;40.20;;;;;;5078864;28;20292;-66
2023/05/28 07:40:20;;;;;;;10.45;3.60;;;37.90;39.70;;;;;;5079534;28;20236;-66
2023/05/28 07:42:48;;;;;;;5.60;3.30;;;37.60;40.40;;;;;;5080274;28;20215;-66
2023/05/28 07:45:15;;;;;;;6.72;3.38;;;37.20;41.00;;;;;;5078103;28;20209;-66
2023/05/28 07:47:42;;;;;;;7.13;3.60;;;37.60;40.30;;;;;;5077393;28;20201;-65
2023/05/28 07:50:10;;;;;;;6.05;3.67;;;37.80;40.10;;;;;;5077229;28;20228;-67
2023/05/28 07:52:39;;;;;;;5.30;3.20;;;38.10;39.50;;;;;;5078050;28;20211;-65
2023/05/28 07:55:06;;;;;;;6.47;3.10;;;38.30;39.00;;;;;;5077859;28;20221;-64
2023/05/28 07:57:34;;;;;;;8.77;4.82;;;38.50;39.10;;;;;;5077363;28;20205;-64
2023/05/28 08:00:05;;;;;;;6.68;3.38;;;38.40;39.10;;;;;;5078857;28;20243;-65
2023/05/28 08:02:32;;;;;;;7.90;3.75;;;38.30;39.10;;;;;;5077643;28;20212;-66
2023/05/28 08:05:00;;;;;;;8.45;3.60;;;38.30;39.20;;;;;;5077989;28;20212;-65
2023/05/28 08:07:27;;;;;;;9.38;3.65;;;38.60;39.00;;;;;;5077879;28;20205;-66
2023/05/28 08:09:54;;;;;;;8.27;3.80;;;38.80;38.80;;;;;;5077654;28;20228;-65
2023/05/28 08:12:21;;;;;;;9.13;3.75;;;38.40;38.80;;;;;;5076904;28;20685;-61
2023/05/28 08:14:48;;;;;;;8.40;3.60;;;38.40;38.80;;;;;;5076640;28;20212;-62
2023/05/28 08:17:16;;;;;;;6.78;3.33;;;38.60;38.80;;;;;;5076107;28;20626;-61
2023/05/28 08:19:43;;;;;;;6.95;3.17;;;38.60;38.90;;;;;;5076392;28;20802;-61
2023/05/28 08:22:10;;;;;;;7.68;3.67;;;38.70;38.50;;;;;;5076125;28;20215;-61
2023/05/28 08:24:36;;;;;;;8.15;3.58;;;38.90;37.90;;;;;;5075684;28;20209;-61
2023/05/28 08:27:03;;;;;;;10.90;4.38;;;38.60;37.90;;;;;;5076064;28;20623;-61
2023/05/28 08:29:30;;;;;;;7.18;3.40;;;38.60;38.10;;;;;;5075841;28;20644;-62
2023/05/28 08:31:58;;;;;;;6.25;3.80;;;39.00;37.40;;;;;;5064814;28;20686;-66
2023/05/28 08:34:27;;;;;;;10.27;3.47;;;39.10;37.10;;;;;;5056663;28;20212;-64
2023/05/28 08:36:54;;;;;;;8.02;3.58;;;38.80;37.70;;;;;;5054398;28;20648;-61
2023/05/28 08:39:20;;;;;;;7.32;3.60;;;38.20;37.90;;;;;;5054648;28;20230;-61
2023/05/28 08:41:47;;;;;;;5.85;3.45;;;37.60;38.30;;;;;;5055278;28;20205;-60
2023/05/28 08:44:14;;;;;;;13.10;6.22;;;36.60;39.50;;;;;;5053549;28;20209;-61
2023/05/28 08:46:42;;;;;;;6.78;3.45;;;35.40;41.60;;;;;;5055241;28;20214;-62
2023/05/28 08:49:11;;;;;;;7.20;3.42;;;34.10;41.80;;;;;;5055223;28;20252;-60
2023/05/28 08:51:42;;;;;;;7.13;3.42;;;32.80;43.10;;;;;;5055339;28;20250;-60
2023/05/28 08:54:09;;;;;;;8.48;3.90;;;31.60;45.30;;;;;;5056083;28;20215;-61
2023/05/28 08:56:36;;;;;;;7.85;3.90;;;30.30;47.20;;;;;;5054973;28;20216;-61
2023/05/28 08:59:04;;;;;;;9.73;3.95;;;29.30;48.70;;;;;;5054692;28;20208;-60
2023/05/28 09:01:31;;;;;;;7.90;3.70;;;28.60;49.80;;;;;;5054570;28;20660;-61
2023/05/28 09:03:58;;;;;;;7.40;3.55;;;28.10;50.90;;;;;;5054383;28;20213;-61
2023/05/28 09:06:25;;;;;;;8.10;4.03;;;27.60;51.70;;;;;;5053979;28;20210;-63
2023/05/28 09:08:54;;;;;;;8.27;3.90;;;27.20;52.80;;;;;;5054212;28;20226;-61
2023/05/28 09:11:21;;;;;;;8.07;3.65;;;26.90;53.60;;;;;;5054483;28;20671;-62
2023/05/28 09:13:49;;;;;;;6.95;3.80;;;26.60;54.00;;;;;;5054401;28;20212;-60
2023/05/28 09:16:21;;;;;;;5.97;3.95;;;26.50;55.00;;;;;;5054203;28;20675;-60
2023/05/28 09:18:50;;;;;;;7.70;3.72;;;26.30;56.10;;;;;;5053924;28;20252;-61
2023/05/28 09:21:17;;;;;;;7.65;3.65;;;25.80;57.60;;;;;;5054312;28;20304;-60
2023/05/28 09:23:45;;;;;;;7.35;3.72;;;25.50;58.20;;;;;;5054610;28;20301;-61
2023/05/28 09:26:15;;;;;;;6.50;3.72;;;25.20;59.30;;;;;;5054452;28;20211;-61
2023/05/28 09:28:44;;;;;;;8.32;3.60;;;25.10;59.40;;;;;;5054375;28;20226;-61
2023/05/28 09:31:10;;;;;;;7.70;3.78;;;25.00;58.10;;;;;;5053779;28;20209;-61
2023/05/28 09:33:42;;;;;;;6.57;3.58;;;25.10;58.20;;;;;;5055265;28;20205;-67
2023/05/28 09:36:10;;;;;;;6.10;3.30;;;25.20;58.30;;;;;;5054772;28;20707;-63
2023/05/28 09:38:41;;;;;;;7.28;3.58;;;25.20;58.80;;;;;;5054979;28;20198;-63
2023/05/28 09:41:20;;;;;;;5.50;3.70;;;25.10;59.50;;;;;;5053821;28;20233;-63
2023/05/28 09:43:47;;;;;;;12.68;4.00;;;25.00;59.90;;;;;;5053419;28;20251;-63
2023/05/28 09:46:13;;;;;;;5.65;3.75;;;24.90;59.80;;;;;;5054159;28;20248;-62
2023/05/28 09:48:40;;;;;;;7.28;3.70;;;25.00;59.90;;;;;;5054015;28;20221;-64
2023/05/28 09:51:10;;;;;;;9.48;3.88;;;24.90;59.60;;;;;;5053530;28;20237;-60
2023/05/28 09:53:42;;;;;;;8.65;3.95;;;24.90;59.60;;;;;;5053846;28;20210;-60
2023/05/28 09:56:10;;;;;;;7.28;3.80;;;24.80;60.20;;;;;;5052546;28;20205;-61
2023/05/28 09:58:40;;;;;;;6.57;3.85;;;24.80;60.10;;;;;;5052249;28;20228;-64
2023/05/28 10:01:11;;;;;;;6.82;3.50;;;24.80;59.80;;;;;;5047236;28;20244;-61
2023/05/28 10:03:42;;;;;;;8.05;3.70;;;25.00;60.00;;;;;;5053512;28;20206;-61
2023/05/28 10:06:12;;;;;;;9.93;3.83;;;25.00;59.10;;;;;;5053190;28;20214;-60
2023/05/28 10:08:40;;;;;;;6.88;5.63;;;25.10;59.60;;;;;;5053314;28;20230;-64
2023/05/28 10:11:11;;;;;;;7.03;3.92;;;25.20;59.40;;;;;;5052956;28;20237;-62
2023/05/28 10:13:41;;;;;;;6.45;3.58;;;25.20;59.00;;;;;;5054498;28;20206;-62
2023/05/28 10:16:08;;;;;;;5.50;3.00;;;25.20;59.00;;;;;;5053355;28;20206;-63
2023/05/28 10:18:35;;;;;;;8.93;3.47;;;25.20;58.80;;;;;;5054849;28;20206;-63
2023/05/28 10:21:04;;;;;;;9.93;3.92;;;25.20;58.50;;;;;;5054327;28;20262;-64
2023/05/28 10:23:32;;;;;;;8.00;3.60;;;25.20;58.60;;;;;;5052664;28;20205;-63
2023/05/28 10:25:59;;;;;;;7.75;3.38;;;25.40;58.60;;;;;;5053453;28;20205;-63
2023/05/28 10:28:29;;;;;;;4.55;3.03;;;25.50;56.30;;;;;;5051416;28;20205;-60
2023/05/28 10:31:06;;;;;;;5.97;3.22;;;25.50;54.90;;;;;;5054036;28;20713;-61
2023/05/28 10:33:39;;;;;;;6.60;3.40;;;25.60;53.30;;;;;;5052806;28;20208;-61
2023/05/28 10:36:11;;;;;;;11.93;3.35;;;25.60;52.00;;;;;;5054283;28;20212;-60
2023/05/28 10:38:43;;;;;;;8.32;3.30;;;25.60;52.50;;;;;;5055294;28;20229;-60
2023/05/28 10:41:10;;;;;;;6.43;3.42;;;25.80;52.20;;;;;;5053498;28;20242;-61
2023/05/28 10:43:46;;;;;;;6.20;3.05;;;25.90;51.20;;;;;;5054564;28;20211;-62
2023/05/28 10:46:17;;;;;;;6.70;3.15;;;26.10;51.60;;;;;;5055166;28;20201;-63
2023/05/28 10:49:06;;;;;;;7.15;3.80;;;26.20;50.90;;;;;;5055528;28;20213;-65
2023/05/28 10:51:57;;;;;;;6.95;3.55;;;26.30;50.70;;;;;;5054776;28;20209;-63
2023/05/28 10:54:39;;;;;;;5.13;2.85;;;26.20;51.30;;;;;;5055710;28;20209;-62
2023/05/28 10:57:14;;;;;;;8.30;3.30;;;26.30;51.30;;;;;;5052781;28;20259;-63
2023/05/28 10:59:46;;;;;;;6.50;3.72;;;26.30;53.50;;;;;;5053193;28;20633;-63
2023/05/28 11:02:18;;;;;;;7.55;3.80;;;26.30;54.10;;;;;;5053473;28;20615;-61
2023/05/28 11:04:45;;;;;;;5.53;3.63;;;26.20;55.30;;;;;;5053325;28;20280;-60
2023/05/28 11:07:13;;;;;;;8.43;3.97;;;26.10;55.00;;;;;;5051814;28;20292;-61
2023/05/28 11:09:40;;;;;;;9.43;3.85;;;26.00;55.00;;;;;;5052856;28;20242;-61
2023/05/28 11:12:08;;;;;;;5.85;3.72;;;26.00;55.20;;;;;;5052879;28;20303;-60
2023/05/28 11:14:36;;;;;;;6.15;3.85;;;26.10;54.60;;;;;;5052702;28;20212;-61
2023/05/28 11:17:07;;;;;;;6.38;4.15;;;26.30;54.50;;;;;;5052716;28;20228;-61
2023/05/28 11:19:42;;;;;;;8.85;4.07;;;26.50;54.60;;;;;;5052480;28;20229;-61
2023/05/28 11:22:08;;;;;;;5.95;3.58;;;26.30;54.10;;;;;;5053165;28;20232;-61
2023/05/28 11:24:58;;;;;;;7.63;3.67;;;26.30;54.40;;;;;;5053283;28;20209;-60
2023/05/28 11:27:27;;;;;;;5.55;3.17;;;26.30;54.20;;;;;;5052669;28;20206;-60
2023/05/28 11:29:56;;;;;;;5.40;3.25;;;26.30;53.50;;;;;;5052756;28;20414;-60
2023/05/28 11:32:23;;;;;;;5.10;3.38;;;26.30;53.70;;;;;;5052545;28;20233;-60
2023/05/28 11:34:54;;;;;;;8.73;4.13;;;26.30;52.90;;;;;;5052803;28;20206;-60
2023/05/28 11:37:28;;;;;;;5.32;3.38;;;26.30;51.30;;;;;;5052663;28;20244;-61
2023/05/28 11:39:56;;;;;;;5.38;3.60;;;26.40;52.50;;;;;;5052425;28;20288;-61
2023/05/28 11:42:24;;;;;;;7.70;4.10;;;26.60;52.50;;;;;;5052360;28;20263;-61
2023/05/28 11:44:52;;;;;;;10.02;3.88;;;26.50;52.90;;;;;;5052760;28;20209;-65
2023/05/28 11:47:19;;;;;;;6.45;3.53;;;26.40;52.50;;;;;;5052447;28;20595;-59
2023/05/28 11:49:47;;;;;;;6.80;4.05;;;26.30;52.20;;;;;;5052341;28;20231;-59
2023/05/28 11:52:16;;;;;;;6.93;4.38;;;26.30;51.50;;;;;;5052356;28;20206;-59
2023/05/28 11:54:46;;;;;;;5.93;3.35;;;26.30;51.70;;;;;;5052039;28;20668;-59
2023/05/28 11:57:21;;;;;;;7.00;3.60;;;26.50;51.90;;;;;;5051820;28;20637;-60
2023/05/28 11:59:55;;;;;;;5.10;3.10;;;26.60;51.30;;;;;;5051952;28;20316;-59
2023/05/28 12:02:23;;;;;;;7.07;3.80;;;26.60;51.40;;;;;;5052159;28;20210;-57
2023/05/28 12:05:00;;;;;;;11.55;3.65;;;26.60;51.10;;;;;;5052316;28;20264;-57
2023/05/28 12:07:33;;;;;;;6.50;3.40;;;26.60;51.20;;;;;;5052108;28;20218;-58
2023/05/28 12:10:08;;;;;;;8.88;3.35;;;26.60;51.80;;;;;;5051624;28;20606;-58
2023/05/28 12:12:35;;;;;;;6.80;3.67;;;26.70;51.30;;;;;;5052032;28;20205;-58
2023/05/28 12:15:04;;;;;;;8.95;6.22;;;26.70;50.20;;;;;;5052111;28;20210;-58
2023/05/28 12:17:37;;;;;;;8.77;4.10;;;26.70;51.10;;;;;;5053023;28;20586;-59
2023/05/28 12:20:06;;;;;;;5.32;3.35;;;26.60;51.40;;;;;;5056353;28;20229;-59
2023/05/28 12:22:34;;;;;;;8.57;3.58;;;26.60;51.50;;;;;;5055653;28;20583;-60
2023/05/28 12:25:02;;;;;;;6.15;3.70;;;26.60;51.90;;;;;;5055439;28;20209;-60
2023/05/28 12:27:29;;;;;;;4.95;3.08;;;26.80;52.00;;;;;;5055240;28;20694;-59
2023/05/28 12:29:56;;;;;;;4.93;3.50;;;26.80;51.20;;;;;;5055032;28;20610;-58
2023/05/28 12:32:23;;;;;;;5.60;3.70;;;26.90;50.50;;;;;;5055321;28;20212;-59
2023/05/28 12:34:51;;;;;;;10.13;4.05;;;26.80;51.20;;;;;;5055030;28;20210;-58
2023/05/28 12:37:18;;;;;;;8.65;3.80;;;26.80;51.70;;;;;;5055125;28;20205;-58
2023/05/28 12:39:46;;;;;;;7.78;3.67;;;26.90;52.10;;;;;;5055102;28;20233;-59
2023/05/28 12:42:13;;;;;;;6.65;3.42;;;27.00;51.60;;;;;;5055361;28;20698;-58
2023/05/28 12:44:39;;;;;;;5.97;3.25;;;27.10;51.40;;;;;;5054934;28;20240;-59
2023/05/28 12:47:07;;;;;;;7.50;3.63;;;27.00;51.40;;;;;;5054954;28;20213;-60
2023/05/28 12:49:33;;;;;;;8.57;3.75;;;26.90;51.30;;;;;;5055182;28;20316;-59